KOVE/OVE METAR and TAF weather

Enter ICAO airport designator
Station Type Date Time Source
KOVE METAR 2021/03/06 03:53 UTC NOAA

KOVE 060353Z AUTO 14010KT 10SM CLR 15/05 A2995 RMK AO2 SLP143 T01500050


Station Type Date Time Source
KOVE Decoded METAR 2021/03/06 03:53 UTC NOAA

OROVILLE MUNICIPAL AIRPORT, CA, United States (KOVE) 39-30N 121-37W 58M
Mar 05, 2021 - 10:53 PM EST / 2021.03.06 0353 UTC
Wind: from the SE (140 degrees) at 12 MPH (10 KT):0
Visibility: 10 mile(s):0
Sky conditions: clear
Temperature: 59.0 F (15.0 C)
Dew Point: 41.0 F (5.0 C)
Relative Humidity: 51%
Pressure (altimeter): 29.95 in. Hg (1014 hPa)
ob: KOVE 060353Z AUTO 14010KT 10SM CLR 15/05 A2995 RMK AO2 SLP143 T01500050
cycle: 4

Station Type Date Time Source
KOVE TAF UTC NOAA

Error!

Example: see airport list